sensor_id;sensor_type;location;lat;lon;timestamp;P1;durP1;ratioP1;P2;durP2;ratioP2
22973;SDS011;11653;50.848;4.584;2023-02-15T00:01:43;64.20;;;29.53;;
22973;SDS011;11653;50.848;4.584;2023-02-15T00:04:09;53.60;;;29.80;;
22973;SDS011;11653;50.848;4.584;2023-02-15T00:06:40;62.97;;;29.90;;
22973;SDS011;11653;50.848;4.584;2023-02-15T00:09:05;58.10;;;28.37;;
22973;SDS011;11653;50.848;4.584;2023-02-15T00:11:31;57.80;;;27.17;;
22973;SDS011;11653;50.848;4.584;2023-02-15T00:14:12;59.33;;;27.97;;
22973;SDS011;11653;50.848;4.584;2023-02-15T00:16:41;54.80;;;27.17;;
22973;SDS011;11653;50.848;4.584;2023-02-15T00:19:08;52.67;;;27.07;;
22973;SDS011;11653;50.848;4.584;2023-02-15T00:21:36;56.33;;;28.57;;
22973;SDS011;11653;50.848;4.584;2023-02-15T00:24:03;56.60;;;29.23;;
22973;SDS011;11653;50.848;4.584;2023-02-15T00:26:31;49.40;;;27.20;;
22973;SDS011;11653;50.848;4.584;2023-02-15T00:28:57;50.30;;;26.90;;
22973;SDS011;11653;50.848;4.584;2023-02-15T00:31:30;54.03;;;27.80;;
22973;SDS011;11653;50.848;4.584;2023-02-15T00:36:38;60.23;;;28.20;;
22973;SDS011;11653;50.848;4.584;2023-02-15T00:39:05;59.97;;;28.43;;
22973;SDS011;11653;50.848;4.584;2023-02-15T00:41:31;52.73;;;27.70;;
22973;SDS011;11653;50.848;4.584;2023-02-15T00:43:57;60.73;;;28.33;;
22973;SDS011;11653;50.848;4.584;2023-02-15T00:46:23;56.77;;;28.27;;
22973;SDS011;11653;50.848;4.584;2023-02-15T00:48:49;53.17;;;28.20;;
22973;SDS011;11653;50.848;4.584;2023-02-15T00:51:15;51.23;;;28.43;;
22973;SDS011;11653;50.848;4.584;2023-02-15T00:53:42;52.93;;;27.80;;
22973;SDS011;11653;50.848;4.584;2023-02-15T00:56:09;52.13;;;27.03;;
22973;SDS011;11653;50.848;4.584;2023-02-15T00:58:35;55.63;;;28.50;;
22973;SDS011;11653;50.848;4.584;2023-02-15T01:01:02;52.43;;;28.10;;
22973;SDS011;11653;50.848;4.584;2023-02-15T01:03:33;58.63;;;28.30;;
22973;SDS011;11653;50.848;4.584;2023-02-15T01:05:59;58.80;;;28.53;;
22973;SDS011;11653;50.848;4.584;2023-02-15T01:08:26;64.67;;;29.43;;
22973;SDS011;11653;50.848;4.584;2023-02-15T01:10:52;57.20;;;30.40;;
22973;SDS011;11653;50.848;4.584;2023-02-15T01:13:18;65.40;;;30.23;;
22973;SDS011;11653;50.848;4.584;2023-02-15T01:15:44;62.00;;;29.67;;
22973;SDS011;11653;50.848;4.584;2023-02-15T01:18:10;57.20;;;30.50;;
22973;SDS011;11653;50.848;4.584;2023-02-15T01:20:37;63.30;;;29.63;;
22973;SDS011;11653;50.848;4.584;2023-02-15T01:23:04;61.90;;;31.47;;
22973;SDS011;11653;50.848;4.584;2023-02-15T01:25:32;58.30;;;29.27;;
22973;SDS011;11653;50.848;4.584;2023-02-15T01:28:00;61.57;;;30.43;;
22973;SDS011;11653;50.848;4.584;2023-02-15T01:30:25;68.03;;;31.27;;
22973;SDS011;11653;50.848;4.584;2023-02-15T01:32:51;54.37;;;28.57;;
22973;SDS011;11653;50.848;4.584;2023-02-15T01:35:17;57.43;;;29.50;;
22973;SDS011;11653;50.848;4.584;2023-02-15T01:37:42;57.70;;;29.23;;
22973;SDS011;11653;50.848;4.584;2023-02-15T01:40:11;61.93;;;30.23;;
22973;SDS011;11653;50.848;4.584;2023-02-15T01:42:38;63.87;;;31.27;;
22973;SDS011;11653;50.848;4.584;2023-02-15T01:45:16;57.00;;;30.10;;
22973;SDS011;11653;50.848;4.584;2023-02-15T01:50:21;60.87;;;29.67;;
22973;SDS011;11653;50.848;4.584;2023-02-15T01:52:54;69.70;;;31.67;;
22973;SDS011;11653;50.848;4.584;2023-02-15T01:55:30;68.17;;;31.87;;
22973;SDS011;11653;50.848;4.584;2023-02-15T01:58:36;66.50;;;31.10;;
22973;SDS011;11653;50.848;4.584;2023-02-15T02:01:02;60.00;;;32.10;;
22973;SDS011;11653;50.848;4.584;2023-02-15T02:06:50;59.87;;;30.50;;
22973;SDS011;11653;50.848;4.584;2023-02-15T02:09:17;66.07;;;31.93;;
22973;SDS011;11653;50.848;4.584;2023-02-15T02:11:42;62.47;;;30.87;;
22973;SDS011;11653;50.848;4.584;2023-02-15T02:14:11;63.50;;;30.90;;
22973;SDS011;11653;50.848;4.584;2023-02-15T02:16:50;67.90;;;31.77;;
22973;SDS011;11653;50.848;4.584;2023-02-15T02:25:37;71.07;;;30.57;;
22973;SDS011;11653;50.848;4.584;2023-02-15T02:38:32;65.40;;;31.67;;
22973;SDS011;11653;50.848;4.584;2023-02-15T02:44:12;65.53;;;33.67;;
22973;SDS011;11653;50.848;4.584;2023-02-15T02:46:53;61.73;;;32.33;;
22973;SDS011;11653;50.848;4.584;2023-02-15T02:49:32;65.07;;;30.73;;
22973;SDS011;11653;50.848;4.584;2023-02-15T02:52:46;70.53;;;32.57;;
22973;SDS011;11653;50.848;4.584;2023-02-15T02:55:10;60.67;;;31.80;;
22973;SDS011;11653;50.848;4.584;2023-02-15T03:00:46;68.87;;;31.37;;
22973;SDS011;11653;50.848;4.584;2023-02-15T03:05:53;63.50;;;32.00;;
22973;SDS011;11653;50.848;4.584;2023-02-15T03:08:23;61.67;;;32.23;;
22973;SDS011;11653;50.848;4.584;2023-02-15T03:10:55;62.67;;;33.27;;
22973;SDS011;11653;50.848;4.584;2023-02-15T03:13:23;64.20;;;31.77;;
22973;SDS011;11653;50.848;4.584;2023-02-15T03:15:52;65.73;;;31.67;;
22973;SDS011;11653;50.848;4.584;2023-02-15T03:18:38;66.93;;;32.80;;
22973;SDS011;11653;50.848;4.584;2023-02-15T03:21:09;65.83;;;31.77;;
22973;SDS011;11653;50.848;4.584;2023-02-15T03:23:48;74.60;;;33.30;;
22973;SDS011;11653;50.848;4.584;2023-02-15T03:26:25;67.10;;;32.87;;
22973;SDS011;11653;50.848;4.584;2023-02-15T03:28:53;63.87;;;34.57;;
22973;SDS011;11653;50.848;4.584;2023-02-15T03:31:23;61.63;;;32.00;;
22973;SDS011;11653;50.848;4.584;2023-02-15T03:33:55;67.13;;;32.40;;
22973;SDS011;11653;50.848;4.584;2023-02-15T03:36:45;65.77;;;32.63;;
22973;SDS011;11653;50.848;4.584;2023-02-15T03:39:18;62.37;;;33.03;;
22973;SDS011;11653;50.848;4.584;2023-02-15T03:47:30;67.47;;;31.90;;
22973;SDS011;11653;50.848;4.584;2023-02-15T03:52:55;64.03;;;34.10;;
22973;SDS011;11653;50.848;4.584;2023-02-15T03:55:23;71.47;;;32.90;;
22973;SDS011;11653;50.848;4.584;2023-02-15T03:57:49;72.87;;;32.57;;
22973;SDS011;11653;50.848;4.584;2023-02-15T04:00:35;73.13;;;33.77;;
22973;SDS011;11653;50.848;4.584;2023-02-15T04:03:27;71.23;;;32.03;;
22973;SDS011;11653;50.848;4.584;2023-02-15T04:06:18;65.17;;;31.40;;
22973;SDS011;11653;50.848;4.584;2023-02-15T04:08:43;65.80;;;32.17;;
22973;SDS011;11653;50.848;4.584;2023-02-15T04:11:28;67.23;;;34.53;;
22973;SDS011;11653;50.848;4.584;2023-02-15T04:13:53;72.53;;;32.93;;
22973;SDS011;11653;50.848;4.584;2023-02-15T04:16:21;61.83;;;31.67;;
22973;SDS011;11653;50.848;4.584;2023-02-15T04:18:49;66.23;;;33.00;;
22973;SDS011;11653;50.848;4.584;2023-02-15T04:21:34;67.20;;;33.20;;
22973;SDS011;11653;50.848;4.584;2023-02-15T04:24:18;66.17;;;34.90;;
22973;SDS011;11653;50.848;4.584;2023-02-15T04:27:03;74.37;;;33.03;;
22973;SDS011;11653;50.848;4.584;2023-02-15T04:29:29;70.83;;;34.10;;
22973;SDS011;11653;50.848;4.584;2023-02-15T04:31:56;65.57;;;33.80;;
22973;SDS011;11653;50.848;4.584;2023-02-15T04:34:23;65.00;;;34.70;;
22973;SDS011;11653;50.848;4.584;2023-02-15T04:36:49;64.03;;;34.80;;
22973;SDS011;11653;50.848;4.584;2023-02-15T04:39:15;73.40;;;34.30;;
22973;SDS011;11653;50.848;4.584;2023-02-15T04:41:42;69.37;;;34.47;;
22973;SDS011;11653;50.848;4.584;2023-02-15T04:44:08;68.97;;;34.90;;
22973;SDS011;11653;50.848;4.584;2023-02-15T04:46:34;72.57;;;34.23;;
22973;SDS011;11653;50.848;4.584;2023-02-15T04:49:00;66.93;;;33.43;;
22973;SDS011;11653;50.848;4.584;2023-02-15T04:51:26;66.73;;;33.90;;
22973;SDS011;11653;50.848;4.584;2023-02-15T04:53:51;66.60;;;33.27;;
22973;SDS011;11653;50.848;4.584;2023-02-15T04:56:17;72.47;;;34.97;;
22973;SDS011;11653;50.848;4.584;2023-02-15T04:58:44;69.07;;;35.30;;
22973;SDS011;11653;50.848;4.584;2023-02-15T05:01:10;64.07;;;34.07;;
22973;SDS011;11653;50.848;4.584;2023-02-15T05:03:38;70.50;;;34.87;;
22973;SDS011;11653;50.848;4.584;2023-02-15T05:06:06;67.40;;;34.20;;
22973;SDS011;11653;50.848;4.584;2023-02-15T05:08:32;68.57;;;33.57;;
22973;SDS011;11653;50.848;4.584;2023-02-15T05:10:58;69.20;;;34.73;;
22973;SDS011;11653;50.848;4.584;2023-02-15T05:13:23;65.03;;;34.27;;
22973;SDS011;11653;50.848;4.584;2023-02-15T05:15:50;73.73;;;34.70;;
22973;SDS011;11653;50.848;4.584;2023-02-15T05:18:19;69.10;;;34.67;;
22973;SDS011;11653;50.848;4.584;2023-02-15T05:20:46;67.03;;;34.47;;
22973;SDS011;11653;50.848;4.584;2023-02-15T05:23:12;68.43;;;34.83;;
22973;SDS011;11653;50.848;4.584;2023-02-15T05:25:37;61.67;;;33.90;;
22973;SDS011;11653;50.848;4.584;2023-02-15T05:28:22;75.13;;;33.70;;
22973;SDS011;11653;50.848;4.584;2023-02-15T05:30:50;76.00;;;34.47;;
22973;SDS011;11653;50.848;4.584;2023-02-15T05:33:31;64.83;;;32.53;;
22973;SDS011;11653;50.848;4.584;2023-02-15T05:35:57;66.87;;;33.80;;
22973;SDS011;11653;50.848;4.584;2023-02-15T05:38:23;66.47;;;33.80;;
22973;SDS011;11653;50.848;4.584;2023-02-15T05:40:52;67.53;;;33.80;;
22973;SDS011;11653;50.848;4.584;2023-02-15T05:43:18;63.70;;;33.00;;
22973;SDS011;11653;50.848;4.584;2023-02-15T05:45:51;79.00;;;34.70;;
22973;SDS011;11653;50.848;4.584;2023-02-15T05:48:18;68.23;;;34.40;;
22973;SDS011;11653;50.848;4.584;2023-02-15T05:50:45;73.97;;;34.47;;
22973;SDS011;11653;50.848;4.584;2023-02-15T05:53:11;73.13;;;35.67;;
22973;SDS011;11653;50.848;4.584;2023-02-15T05:55:38;67.97;;;32.60;;
22973;SDS011;11653;50.848;4.584;2023-02-15T05:58:05;83.33;;;38.63;;
22973;SDS011;11653;50.848;4.584;2023-02-15T06:00:31;75.63;;;36.03;;
22973;SDS011;11653;50.848;4.584;2023-02-15T06:02:57;65.77;;;33.17;;
22973;SDS011;11653;50.848;4.584;2023-02-15T06:05:22;66.93;;;33.47;;
22973;SDS011;11653;50.848;4.584;2023-02-15T06:07:48;70.80;;;34.40;;
22973;SDS011;11653;50.848;4.584;2023-02-15T06:10:18;72.77;;;34.67;;
22973;SDS011;11653;50.848;4.584;2023-02-15T06:12:44;72.00;;;33.83;;
22973;SDS011;11653;50.848;4.584;2023-02-15T06:15:10;69.87;;;33.27;;
22973;SDS011;11653;50.848;4.584;2023-02-15T06:17:35;67.30;;;33.67;;
22973;SDS011;11653;50.848;4.584;2023-02-15T06:20:02;69.27;;;35.33;;
22973;SDS011;11653;50.848;4.584;2023-02-15T06:22:28;80.80;;;36.03;;
22973;SDS011;11653;50.848;4.584;2023-02-15T06:24:53;70.70;;;35.43;;
22973;SDS011;11653;50.848;4.584;2023-02-15T06:27:19;73.10;;;34.27;;
22973;SDS011;11653;50.848;4.584;2023-02-15T06:29:45;67.90;;;33.43;;
22973;SDS011;11653;50.848;4.584;2023-02-15T06:32:10;73.47;;;35.20;;
22973;SDS011;11653;50.848;4.584;2023-02-15T06:34:41;73.67;;;36.07;;
22973;SDS011;11653;50.848;4.584;2023-02-15T06:37:06;75.17;;;34.07;;
22973;SDS011;11653;50.848;4.584;2023-02-15T06:39:33;80.07;;;36.93;;
22973;SDS011;11653;50.848;4.584;2023-02-15T06:41:59;67.03;;;34.50;;
22973;SDS011;11653;50.848;4.584;2023-02-15T06:44:25;69.17;;;34.33;;
22973;SDS011;11653;50.848;4.584;2023-02-15T06:46:50;107.80;;;48.50;;
22973;SDS011;11653;50.848;4.584;2023-02-15T06:49:16;84.27;;;39.23;;
22973;SDS011;11653;50.848;4.584;2023-02-15T06:51:42;66.37;;;34.23;;
22973;SDS011;11653;50.848;4.584;2023-02-15T06:54:07;71.40;;;35.43;;
22973;SDS011;11653;50.848;4.584;2023-02-15T06:56:33;71.57;;;35.80;;
22973;SDS011;11653;50.848;4.584;2023-02-15T06:58:59;81.60;;;36.60;;
22973;SDS011;11653;50.848;4.584;2023-02-15T07:01:24;71.60;;;35.57;;
22973;SDS011;11653;50.848;4.584;2023-02-15T07:03:50;69.90;;;36.40;;
22973;SDS011;11653;50.848;4.584;2023-02-15T07:06:16;78.03;;;36.23;;
22973;SDS011;11653;50.848;4.584;2023-02-15T07:08:41;69.50;;;35.10;;
22973;SDS011;11653;50.848;4.584;2023-02-15T07:11:07;74.97;;;35.03;;
22973;SDS011;11653;50.848;4.584;2023-02-15T07:13:51;73.17;;;35.93;;
22973;SDS011;11653;50.848;4.584;2023-02-15T07:16:18;72.33;;;35.40;;
22973;SDS011;11653;50.848;4.584;2023-02-15T07:18:44;80.10;;;36.57;;
22973;SDS011;11653;50.848;4.584;2023-02-15T07:21:10;78.57;;;36.67;;
22973;SDS011;11653;50.848;4.584;2023-02-15T07:23:36;72.37;;;34.10;;
22973;SDS011;11653;50.848;4.584;2023-02-15T07:26:03;77.53;;;37.10;;
22973;SDS011;11653;50.848;4.584;2023-02-15T07:28:29;371.63;;;163.87;;
22973;SDS011;11653;50.848;4.584;2023-02-15T07:30:56;291.53;;;131.30;;
22973;SDS011;11653;50.848;4.584;2023-02-15T07:33:23;94.47;;;44.57;;
22973;SDS011;11653;50.848;4.584;2023-02-15T07:35:50;83.67;;;38.93;;
22973;SDS011;11653;50.848;4.584;2023-02-15T07:38:17;75.13;;;39.87;;
22973;SDS011;11653;50.848;4.584;2023-02-15T07:40:44;208.03;;;105.07;;
22973;SDS011;11653;50.848;4.584;2023-02-15T07:43:10;83.80;;;42.80;;
22973;SDS011;11653;50.848;4.584;2023-02-15T07:45:36;81.00;;;40.63;;
22973;SDS011;11653;50.848;4.584;2023-02-15T07:48:03;85.33;;;40.67;;
22973;SDS011;11653;50.848;4.584;2023-02-15T07:50:29;82.70;;;40.10;;
22973;SDS011;11653;50.848;4.584;2023-02-15T07:52:55;83.03;;;40.67;;
22973;SDS011;11653;50.848;4.584;2023-02-15T07:55:22;84.43;;;39.10;;
22973;SDS011;11653;50.848;4.584;2023-02-15T07:57:48;77.37;;;37.53;;
22973;SDS011;11653;50.848;4.584;2023-02-15T08:00:19;67.23;;;34.20;;
22973;SDS011;11653;50.848;4.584;2023-02-15T08:02:50;67.60;;;35.80;;
22973;SDS011;11653;50.848;4.584;2023-02-15T08:12:01;60.70;;;33.70;;
22973;SDS011;11653;50.848;4.584;2023-02-15T08:14:27;62.10;;;33.33;;
22973;SDS011;11653;50.848;4.584;2023-02-15T08:16:55;65.33;;;33.27;;
22973;SDS011;11653;50.848;4.584;2023-02-15T08:22:57;98.60;;;44.87;;
22973;SDS011;11653;50.848;4.584;2023-02-15T08:28:44;95.13;;;43.37;;
22973;SDS011;11653;50.848;4.584;2023-02-15T08:31:11;99.87;;;49.53;;
22973;SDS011;11653;50.848;4.584;2023-02-15T08:33:38;96.13;;;50.07;;
22973;SDS011;11653;50.848;4.584;2023-02-15T08:36:06;92.13;;;47.70;;
22973;SDS011;11653;50.848;4.584;2023-02-15T08:38:34;88.73;;;50.47;;
22973;SDS011;11653;50.848;4.584;2023-02-15T08:41:10;82.93;;;42.23;;
22973;SDS011;11653;50.848;4.584;2023-02-15T08:43:47;80.73;;;43.57;;
22973;SDS011;11653;50.848;4.584;2023-02-15T08:46:17;76.37;;;40.30;;
22973;SDS011;11653;50.848;4.584;2023-02-15T08:48:45;76.27;;;40.80;;
22973;SDS011;11653;50.848;4.584;2023-02-15T08:51:12;69.20;;;40.63;;
22973;SDS011;11653;50.848;4.584;2023-02-15T08:56:47;67.50;;;39.00;;
22973;SDS011;11653;50.848;4.584;2023-02-15T08:59:14;61.93;;;36.73;;
22973;SDS011;11653;50.848;4.584;2023-02-15T09:01:41;65.97;;;36.17;;
22973;SDS011;11653;50.848;4.584;2023-02-15T09:04:07;61.83;;;34.43;;
22973;SDS011;11653;50.848;4.584;2023-02-15T09:06:34;61.77;;;34.23;;
22973;SDS011;11653;50.848;4.584;2023-02-15T09:09:02;62.17;;;34.07;;
22973;SDS011;11653;50.848;4.584;2023-02-15T09:11:29;52.67;;;30.57;;
22973;SDS011;11653;50.848;4.584;2023-02-15T09:14:02;53.83;;;30.27;;
22973;SDS011;11653;50.848;4.584;2023-02-15T09:16:30;48.07;;;28.37;;
22973;SDS011;11653;50.848;4.584;2023-02-15T09:18:58;51.20;;;29.53;;
22973;SDS011;11653;50.848;4.584;2023-02-15T09:21:26;48.60;;;28.10;;
22973;SDS011;11653;50.848;4.584;2023-02-15T09:23:55;48.63;;;28.27;;
22973;SDS011;11653;50.848;4.584;2023-02-15T09:26:24;51.17;;;28.30;;
22973;SDS011;11653;50.848;4.584;2023-02-15T09:28:52;54.20;;;30.00;;
22973;SDS011;11653;50.848;4.584;2023-02-15T10:23:25;41.20;;;24.27;;
22973;SDS011;11653;50.848;4.584;2023-02-15T10:30:12;44.00;;;24.63;;
22973;SDS011;11653;50.848;4.584;2023-02-15T10:32:51;38.43;;;23.20;;
22973;SDS011;11653;50.848;4.584;2023-02-15T10:36:15;40.07;;;23.53;;
22973;SDS011;11653;50.848;4.584;2023-02-15T10:51:16;45.13;;;23.87;;
22973;SDS011;11653;50.848;4.584;2023-02-15T11:26:03;38.30;;;23.23;;
22973;SDS011;11653;50.848;4.584;2023-02-15T11:28:36;37.60;;;22.83;;
22973;SDS011;11653;50.848;4.584;2023-02-15T11:38:17;43.80;;;24.10;;
22973;SDS011;11653;50.848;4.584;2023-02-15T11:40:50;41.23;;;23.97;;
22973;SDS011;11653;50.848;4.584;2023-02-15T11:46:02;41.63;;;23.33;;
22973;SDS011;11653;50.848;4.584;2023-02-15T11:48:28;40.83;;;23.30;;
22973;SDS011;11653;50.848;4.584;2023-02-15T11:50:56;41.60;;;23.40;;
22973;SDS011;11653;50.848;4.584;2023-02-15T11:53:22;41.33;;;23.50;;
22973;SDS011;11653;50.848;4.584;2023-02-15T11:55:52;38.03;;;22.40;;
22973;SDS011;11653;50.848;4.584;2023-02-15T12:12:39;41.57;;;23.10;;
22973;SDS011;11653;50.848;4.584;2023-02-15T12:15:06;38.40;;;21.83;;
22973;SDS011;11653;50.848;4.584;2023-02-15T12:17:38;43.20;;;22.90;;
22973;SDS011;11653;50.848;4.584;2023-02-15T12:20:27;42.23;;;23.67;;
22973;SDS011;11653;50.848;4.584;2023-02-15T12:30:58;42.93;;;23.10;;
22973;SDS011;11653;50.848;4.584;2023-02-15T12:35:56;44.60;;;23.23;;
22973;SDS011;11653;50.848;4.584;2023-02-15T12:38:26;41.17;;;22.43;;
22973;SDS011;11653;50.848;4.584;2023-02-15T12:41:03;44.03;;;23.63;;
22973;SDS011;11653;50.848;4.584;2023-02-15T12:43:35;38.77;;;22.37;;
22973;SDS011;11653;50.848;4.584;2023-02-15T12:48:43;40.93;;;23.37;;
22973;SDS011;11653;50.848;4.584;2023-02-15T12:51:13;42.90;;;23.30;;
22973;SDS011;11653;50.848;4.584;2023-02-15T12:53:40;45.67;;;24.97;;
22973;SDS011;11653;50.848;4.584;2023-02-15T12:56:06;46.17;;;23.67;;
22973;SDS011;11653;50.848;4.584;2023-02-15T12:58:38;39.83;;;22.60;;
22973;SDS011;11653;50.848;4.584;2023-02-15T13:04:14;39.23;;;22.73;;
22973;SDS011;11653;50.848;4.584;2023-02-15T13:06:38;41.20;;;24.63;;
22973;SDS011;11653;50.848;4.584;2023-02-15T13:11:42;40.00;;;22.90;;
22973;SDS011;11653;50.848;4.584;2023-02-15T13:14:25;41.17;;;23.83;;
22973;SDS011;11653;50.848;4.584;2023-02-15T13:16:57;43.47;;;23.93;;
22973;SDS011;11653;50.848;4.584;2023-02-15T13:22:00;48.53;;;25.90;;
22973;SDS011;11653;50.848;4.584;2023-02-15T13:24:35;46.90;;;25.03;;
22973;SDS011;11653;50.848;4.584;2023-02-15T13:27:12;42.53;;;24.50;;
22973;SDS011;11653;50.848;4.584;2023-02-15T13:29:42;41.27;;;24.80;;
22973;SDS011;11653;50.848;4.584;2023-02-15T13:32:21;42.60;;;24.03;;
22973;SDS011;11653;50.848;4.584;2023-02-15T13:34:58;43.20;;;25.10;;
22973;SDS011;11653;50.848;4.584;2023-02-15T13:37:34;44.70;;;24.97;;
22973;SDS011;11653;50.848;4.584;2023-02-15T13:40:13;45.30;;;25.10;;
22973;SDS011;11653;50.848;4.584;2023-02-15T13:42:47;45.93;;;25.73;;
22973;SDS011;11653;50.848;4.584;2023-02-15T13:50:38;50.10;;;25.93;;
22973;SDS011;11653;50.848;4.584;2023-02-15T13:55:56;46.30;;;25.10;;
22973;SDS011;11653;50.848;4.584;2023-02-15T14:03:52;50.33;;;26.10;;
22973;SDS011;11653;50.848;4.584;2023-02-15T14:23:43;48.47;;;26.17;;
22973;SDS011;11653;50.848;4.584;2023-02-15T14:34:50;47.13;;;26.30;;
22973;SDS011;11653;50.848;4.584;2023-02-15T14:37:22;48.93;;;26.37;;
22973;SDS011;11653;50.848;4.584;2023-02-15T14:40:11;50.13;;;27.13;;
22973;SDS011;11653;50.848;4.584;2023-02-15T14:42:58;50.70;;;27.17;;
22973;SDS011;11653;50.848;4.584;2023-02-15T14:45:39;46.30;;;26.53;;
22973;SDS011;11653;50.848;4.584;2023-02-15T14:48:25;50.90;;;26.60;;
22973;SDS011;11653;50.848;4.584;2023-02-15T14:50:56;44.00;;;26.03;;
22973;SDS011;11653;50.848;4.584;2023-02-15T14:53:32;48.70;;;26.03;;
22973;SDS011;11653;50.848;4.584;2023-02-15T14:58:35;50.17;;;26.77;;
22973;SDS011;11653;50.848;4.584;2023-02-15T15:01:26;49.60;;;27.07;;
22973;SDS011;11653;50.848;4.584;2023-02-15T15:03:58;48.67;;;26.23;;
22973;SDS011;11653;50.848;4.584;2023-02-15T15:06:29;48.33;;;26.83;;
22973;SDS011;11653;50.848;4.584;2023-02-15T15:11:51;50.33;;;26.33;;
22973;SDS011;11653;50.848;4.584;2023-02-15T15:14:36;49.63;;;27.47;;
22973;SDS011;11653;50.848;4.584;2023-02-15T15:17:04;46.50;;;24.93;;
22973;SDS011;11653;50.848;4.584;2023-02-15T15:22:31;42.87;;;23.83;;
22973;SDS011;11653;50.848;4.584;2023-02-15T15:25:00;47.50;;;24.77;;
22973;SDS011;11653;50.848;4.584;2023-02-15T15:38:00;46.47;;;23.10;;
22973;SDS011;11653;50.848;4.584;2023-02-15T15:43:50;47.93;;;24.50;;
22973;SDS011;11653;50.848;4.584;2023-02-15T15:47:11;45.23;;;24.43;;
22973;SDS011;11653;50.848;4.584;2023-02-15T15:50:00;45.70;;;25.30;;
22973;SDS011;11653;50.848;4.584;2023-02-15T15:52:26;51.20;;;26.10;;
22973;SDS011;11653;50.848;4.584;2023-02-15T15:54:57;46.40;;;26.00;;
22973;SDS011;11653;50.848;4.584;2023-02-15T15:57:39;44.53;;;24.20;;
22973;SDS011;11653;50.848;4.584;2023-02-15T16:00:25;51.37;;;25.30;;
22973;SDS011;11653;50.848;4.584;2023-02-15T16:02:54;45.40;;;25.70;;
22973;SDS011;11653;50.848;4.584;2023-02-15T16:05:22;48.37;;;25.70;;
22973;SDS011;11653;50.848;4.584;2023-02-15T16:07:48;48.13;;;25.90;;
22973;SDS011;11653;50.848;4.584;2023-02-15T16:10:22;47.13;;;25.57;;
22973;SDS011;11653;50.848;4.584;2023-02-15T16:12:53;46.77;;;24.57;;
22973;SDS011;11653;50.848;4.584;2023-02-15T16:15:24;48.07;;;25.47;;
22973;SDS011;11653;50.848;4.584;2023-02-15T16:17:56;45.37;;;24.70;;
22973;SDS011;11653;50.848;4.584;2023-02-15T16:28:19;48.53;;;26.47;;
22973;SDS011;11653;50.848;4.584;2023-02-15T16:30:45;46.63;;;25.17;;
22973;SDS011;11653;50.848;4.584;2023-02-15T16:33:15;48.77;;;27.33;;
22973;SDS011;11653;50.848;4.584;2023-02-15T16:35:55;47.70;;;27.37;;
22973;SDS011;11653;50.848;4.584;2023-02-15T16:41:15;51.60;;;27.87;;
22973;SDS011;11653;50.848;4.584;2023-02-15T16:43:45;55.43;;;29.47;;
22973;SDS011;11653;50.848;4.584;2023-02-15T16:48:51;50.57;;;27.27;;
22973;SDS011;11653;50.848;4.584;2023-02-15T16:51:24;58.27;;;30.23;;
22973;SDS011;11653;50.848;4.584;2023-02-15T16:53:52;57.57;;;29.57;;
22973;SDS011;11653;50.848;4.584;2023-02-15T16:56:23;52.93;;;28.97;;
22973;SDS011;11653;50.848;4.584;2023-02-15T16:58:55;62.23;;;34.13;;
22973;SDS011;11653;50.848;4.584;2023-02-15T17:01:23;63.23;;;33.40;;
22973;SDS011;11653;50.848;4.584;2023-02-15T17:04:09;57.87;;;33.37;;
22973;SDS011;11653;50.848;4.584;2023-02-15T17:09:43;58.07;;;31.40;;
22973;SDS011;11653;50.848;4.584;2023-02-15T17:12:36;61.67;;;31.10;;
22973;SDS011;11653;50.848;4.584;2023-02-15T17:18:05;56.23;;;29.93;;
22973;SDS011;11653;50.848;4.584;2023-02-15T17:20:41;59.87;;;32.63;;
22973;SDS011;11653;50.848;4.584;2023-02-15T17:23:20;65.47;;;32.90;;
22973;SDS011;11653;50.848;4.584;2023-02-15T17:26:00;66.73;;;35.07;;
22973;SDS011;11653;50.848;4.584;2023-02-15T17:28:36;72.00;;;37.07;;
22973;SDS011;11653;50.848;4.584;2023-02-15T17:31:01;67.33;;;36.17;;
22973;SDS011;11653;50.848;4.584;2023-02-15T17:41:22;78.30;;;39.13;;
22973;SDS011;11653;50.848;4.584;2023-02-15T17:43:48;75.43;;;36.93;;
22973;SDS011;11653;50.848;4.584;2023-02-15T17:46:14;72.83;;;37.73;;
22973;SDS011;11653;50.848;4.584;2023-02-15T17:48:43;72.50;;;36.97;;
22973;SDS011;11653;50.848;4.584;2023-02-15T17:51:13;77.53;;;37.87;;
22973;SDS011;11653;50.848;4.584;2023-02-15T17:53:39;75.63;;;39.47;;
22973;SDS011;11653;50.848;4.584;2023-02-15T17:56:05;76.47;;;37.80;;
22973;SDS011;11653;50.848;4.584;2023-02-15T17:58:35;79.63;;;39.63;;
22973;SDS011;11653;50.848;4.584;2023-02-15T18:01:03;79.97;;;38.83;;
22973;SDS011;11653;50.848;4.584;2023-02-15T18:03:55;73.90;;;37.40;;
22973;SDS011;11653;50.848;4.584;2023-02-15T18:06:41;77.00;;;38.87;;
22973;SDS011;11653;50.848;4.584;2023-02-15T18:09:26;85.03;;;41.53;;
22973;SDS011;11653;50.848;4.584;2023-02-15T18:12:24;83.00;;;42.20;;
22973;SDS011;11653;50.848;4.584;2023-02-15T18:14:50;84.33;;;41.43;;
22973;SDS011;11653;50.848;4.584;2023-02-15T18:17:18;84.90;;;41.47;;
22973;SDS011;11653;50.848;4.584;2023-02-15T18:19:45;77.03;;;39.53;;
22973;SDS011;11653;50.848;4.584;2023-02-15T18:22:12;76.40;;;37.33;;
22973;SDS011;11653;50.848;4.584;2023-02-15T18:24:40;77.47;;;39.63;;
22973;SDS011;11653;50.848;4.584;2023-02-15T18:27:06;79.20;;;39.07;;
22973;SDS011;11653;50.848;4.584;2023-02-15T18:29:31;75.50;;;39.40;;
22973;SDS011;11653;50.848;4.584;2023-02-15T18:31:58;71.43;;;38.13;;
22973;SDS011;11653;50.848;4.584;2023-02-15T18:34:29;73.23;;;38.17;;
22973;SDS011;11653;50.848;4.584;2023-02-15T18:37:02;80.40;;;39.63;;
22973;SDS011;11653;50.848;4.584;2023-02-15T18:42:25;71.30;;;36.57;;
22973;SDS011;11653;50.848;4.584;2023-02-15T18:45:15;73.37;;;38.07;;
22973;SDS011;11653;50.848;4.584;2023-02-15T18:47:41;72.13;;;38.57;;
22973;SDS011;11653;50.848;4.584;2023-02-15T18:50:07;86.27;;;39.27;;
22973;SDS011;11653;50.848;4.584;2023-02-15T18:52:36;76.73;;;38.17;;
22973;SDS011;11653;50.848;4.584;2023-02-15T18:55:04;75.47;;;38.87;;
22973;SDS011;11653;50.848;4.584;2023-02-15T18:57:43;72.23;;;40.13;;
22973;SDS011;11653;50.848;4.584;2023-02-15T19:00:32;69.97;;;37.37;;
22973;SDS011;11653;50.848;4.584;2023-02-15T19:02:57;71.47;;;37.03;;
22973;SDS011;11653;50.848;4.584;2023-02-15T19:05:23;74.67;;;37.93;;
22973;SDS011;11653;50.848;4.584;2023-02-15T19:07:55;71.63;;;37.13;;
22973;SDS011;11653;50.848;4.584;2023-02-15T19:10:23;72.60;;;37.07;;
22973;SDS011;11653;50.848;4.584;2023-02-15T19:12:50;82.30;;;38.30;;
22973;SDS011;11653;50.848;4.584;2023-02-15T19:15:18;72.07;;;39.00;;
22973;SDS011;11653;50.848;4.584;2023-02-15T19:17:48;70.30;;;36.47;;
22973;SDS011;11653;50.848;4.584;2023-02-15T19:20:15;77.23;;;38.57;;
22973;SDS011;11653;50.848;4.584;2023-02-15T19:22:47;74.70;;;37.23;;
22973;SDS011;11653;50.848;4.584;2023-02-15T19:25:19;66.67;;;35.73;;
22973;SDS011;11653;50.848;4.584;2023-02-15T19:27:48;69.90;;;36.37;;
22973;SDS011;11653;50.848;4.584;2023-02-15T19:30:24;70.50;;;36.57;;
22973;SDS011;11653;50.848;4.584;2023-02-15T19:32:53;67.47;;;35.87;;
22973;SDS011;11653;50.848;4.584;2023-02-15T19:35:20;88.37;;;45.80;;
22973;SDS011;11653;50.848;4.584;2023-02-15T19:37:49;81.60;;;39.77;;
22973;SDS011;11653;50.848;4.584;2023-02-15T19:40:22;70.03;;;37.30;;